sensor_id;sensor_type;location;lat;lon;timestamp;temperature;humidity
20858;DHT22;10589;53.636;10.012;2023-02-01T04:47:22;4.70;99.90
20858;DHT22;10589;53.636;10.012;2023-02-01T04:49:47;4.70;99.90
20858;DHT22;10589;53.636;10.012;2023-02-01T04:52:13;4.70;99.90
20858;DHT22;10589;53.636;10.012;2023-02-01T04:54:38;4.60;99.90
20858;DHT22;10589;53.636;10.012;2023-02-01T04:57:04;4.60;99.90
20858;DHT22;10589;53.636;10.012;2023-02-01T04:59:29;4.60;99.90
20858;DHT22;10589;53.636;10.012;2023-02-01T05:01:55;4.60;99.90
20858;DHT22;10589;53.636;10.012;2023-02-01T05:04:21;4.60;99.90
20858;DHT22;10589;53.636;10.012;2023-02-01T05:06:46;4.60;99.90
20858;DHT22;10589;53.636;10.012;2023-02-01T05:09:12;4.60;99.90
20858;DHT22;10589;53.636;10.012;2023-02-01T05:11:37;4.60;99.90
20858;DHT22;10589;53.636;10.012;2023-02-01T05:14:22;4.50;99.90
20858;DHT22;10589;53.636;10.012;2023-02-01T05:16:47;4.50;99.90
20858;DHT22;10589;53.636;10.012;2023-02-01T05:19:13;4.50;99.90
20858;DHT22;10589;53.636;10.012;2023-02-01T05:21:38;4.30;99.90
20858;DHT22;10589;53.636;10.012;2023-02-01T05:24:04;4.30;99.90
20858;DHT22;10589;53.636;10.012;2023-02-01T05:26:39;4.20;99.90
20858;DHT22;10589;53.636;10.012;2023-02-01T05:29:06;4.10;99.90
20858;DHT22;10589;53.636;10.012;2023-02-01T05:31:32;4.10;99.90
20858;DHT22;10589;53.636;10.012;2023-02-01T05:33:57;4.10;99.90
20858;DHT22;10589;53.636;10.012;2023-02-01T05:36:23;4.00;99.90
20858;DHT22;10589;53.636;10.012;2023-02-01T05:38:49;3.90;99.90
20858;DHT22;10589;53.636;10.012;2023-02-01T05:41:14;3.80;99.90
20858;DHT22;10589;53.636;10.012;2023-02-01T05:43:40;3.80;99.90
20858;DHT22;10589;53.636;10.012;2023-02-01T05:46:05;3.80;99.90
20858;DHT22;10589;53.636;10.012;2023-02-01T05:48:31;3.60;99.90
20858;DHT22;10589;53.636;10.012;2023-02-01T05:50:57;3.50;99.90
20858;DHT22;10589;53.636;10.012;2023-02-01T05:53:22;3.50;99.90
20858;DHT22;10589;53.636;10.012;2023-02-01T05:55:48;3.50;99.90
20858;DHT22;10589;53.636;10.012;2023-02-01T05:58:13;3.50;99.90
20858;DHT22;10589;53.636;10.012;2023-02-01T06:00:39;3.50;99.90
20858;DHT22;10589;53.636;10.012;2023-02-01T06:03:05;3.50;99.90
20858;DHT22;10589;53.636;10.012;2023-02-01T06:05:31;3.40;99.90
20858;DHT22;10589;53.636;10.012;2023-02-01T06:07:56;3.30;99.90
20858;DHT22;10589;53.636;10.012;2023-02-01T06:10:22;3.20;99.90
20858;DHT22;10589;53.636;10.012;2023-02-01T06:12:48;3.20;99.90
20858;DHT22;10589;53.636;10.012;2023-02-01T06:15:14;3.30;99.90
20858;DHT22;10589;53.636;10.012;2023-02-01T06:17:43;3.30;99.90
20858;DHT22;10589;53.636;10.012;2023-02-01T06:20:10;3.30;99.90
20858;DHT22;10589;53.636;10.012;2023-02-01T06:22:36;3.30;99.90
20858;DHT22;10589;53.636;10.012;2023-02-01T06:25:06;3.40;99.90
20858;DHT22;10589;53.636;10.012;2023-02-01T06:27:32;3.40;99.90
20858;DHT22;10589;53.636;10.012;2023-02-01T06:29:58;3.40;99.90
20858;DHT22;10589;53.636;10.012;2023-02-01T06:32:24;3.50;99.90
20858;DHT22;10589;53.636;10.012;2023-02-01T06:34:49;3.50;99.90
20858;DHT22;10589;53.636;10.012;2023-02-01T06:37:15;3.50;99.90
20858;DHT22;10589;53.636;10.012;2023-02-01T06:39:41;3.50;99.90
20858;DHT22;10589;53.636;10.012;2023-02-01T06:42:10;3.50;99.90
20858;DHT22;10589;53.636;10.012;2023-02-01T06:44:38;3.50;99.90
20858;DHT22;10589;53.636;10.012;2023-02-01T06:47:04;3.50;99.90
20858;DHT22;10589;53.636;10.012;2023-02-01T06:49:30;3.60;99.90
20858;DHT22;10589;53.636;10.012;2023-02-01T06:51:56;3.60;99.90
20858;DHT22;10589;53.636;10.012;2023-02-01T06:54:21;3.70;99.90
20858;DHT22;10589;53.636;10.012;2023-02-01T06:56:47;3.80;99.90
20858;DHT22;10589;53.636;10.012;2023-02-01T06:59:12;3.80;99.90
20858;DHT22;10589;53.636;10.012;2023-02-01T07:01:38;3.90;99.90
20858;DHT22;10589;53.636;10.012;2023-02-01T07:04:04;3.90;99.90
20858;DHT22;10589;53.636;10.012;2023-02-01T07:06:30;4.00;99.90
20858;DHT22;10589;53.636;10.012;2023-02-01T07:08:57;4.00;99.90
20858;DHT22;10589;53.636;10.012;2023-02-01T07:11:23;4.10;99.90
20858;DHT22;10589;53.636;10.012;2023-02-01T07:13:49;4.10;99.90
20858;DHT22;10589;53.636;10.012;2023-02-01T07:16:18;4.20;99.90
20858;DHT22;10589;53.636;10.012;2023-02-01T07:18:44;4.20;99.90
20858;DHT22;10589;53.636;10.012;2023-02-01T07:21:10;4.30;99.90
20858;DHT22;10589;53.636;10.012;2023-02-01T07:23:37;4.30;99.90
20858;DHT22;10589;53.636;10.012;2023-02-01T07:26:06;4.30;99.90
20858;DHT22;10589;53.636;10.012;2023-02-01T07:28:34;4.30;99.90
20858;DHT22;10589;53.636;10.012;2023-02-01T07:31:10;4.40;99.90
20858;DHT22;10589;53.636;10.012;2023-02-01T07:33:36;4.40;99.90
20858;DHT22;10589;53.636;10.012;2023-02-01T07:36:05;4.50;99.90
20858;DHT22;10589;53.636;10.012;2023-02-01T07:38:31;4.50;99.90
20858;DHT22;10589;53.636;10.012;2023-02-01T07:41:03;4.50;99.90
20858;DHT22;10589;53.636;10.012;2023-02-01T07:43:31;4.50;99.90
20858;DHT22;10589;53.636;10.012;2023-02-01T07:45:56;4.60;99.90
20858;DHT22;10589;53.636;10.012;2023-02-01T07:48:24;4.50;99.90
20858;DHT22;10589;53.636;10.012;2023-02-01T07:50:58;4.40;99.90
20858;DHT22;10589;53.636;10.012;2023-02-01T07:53:25;4.20;99.90
20858;DHT22;10589;53.636;10.012;2023-02-01T07:55:51;4.20;99.90
20858;DHT22;10589;53.636;10.012;2023-02-01T07:58:27;4.20;99.90
20858;DHT22;10589;53.636;10.012;2023-02-01T08:00:53;4.40;99.90
20858;DHT22;10589;53.636;10.012;2023-02-01T08:03:38;4.40;99.90
20858;DHT22;10589;53.636;10.012;2023-02-01T08:06:04;4.50;99.90
20858;DHT22;10589;53.636;10.012;2023-02-01T08:08:30;4.60;99.90
20858;DHT22;10589;53.636;10.012;2023-02-01T08:11:06;4.70;99.90
20858;DHT22;10589;53.636;10.012;2023-02-01T08:13:36;4.80;99.90
20858;DHT22;10589;53.636;10.012;2023-02-01T08:16:08;4.80;99.90
20858;DHT22;10589;53.636;10.012;2023-02-01T08:18:36;4.90;99.90
20858;DHT22;10589;53.636;10.012;2023-02-01T08:21:10;4.90;99.90
20858;DHT22;10589;53.636;10.012;2023-02-01T08:23:37;4.90;99.90
20858;DHT22;10589;53.636;10.012;2023-02-01T08:28:42;5.10;99.90
20858;DHT22;10589;53.636;10.012;2023-02-01T08:31:09;5.20;99.90
20858;DHT22;10589;53.636;10.012;2023-02-01T08:33:35;5.20;99.90
20858;DHT22;10589;53.636;10.012;2023-02-01T08:36:03;5.40;99.90
20858;DHT22;10589;53.636;10.012;2023-02-01T08:38:29;5.40;99.90
20858;DHT22;10589;53.636;10.012;2023-02-01T08:40:55;5.40;99.90
20858;DHT22;10589;53.636;10.012;2023-02-01T08:43:21;5.30;99.90
20858;DHT22;10589;53.636;10.012;2023-02-01T08:45:46;5.30;99.90
20858;DHT22;10589;53.636;10.012;2023-02-01T08:48:12;5.20;99.90
20858;DHT22;10589;53.636;10.012;2023-02-01T08:50:37;5.10;99.90
20858;DHT22;10589;53.636;10.012;2023-02-01T08:53:03;5.00;99.90
20858;DHT22;10589;53.636;10.012;2023-02-01T08:55:28;4.90;99.90
20858;DHT22;10589;53.636;10.012;2023-02-01T08:57:54;4.80;99.90
20858;DHT22;10589;53.636;10.012;2023-02-01T09:00:21;4.70;99.90
20858;DHT22;10589;53.636;10.012;2023-02-01T09:02:46;4.80;99.90
20858;DHT22;10589;53.636;10.012;2023-02-01T09:05:13;4.80;99.90
20858;DHT22;10589;53.636;10.012;2023-02-01T09:07:41;4.80;99.90
20858;DHT22;10589;53.636;10.012;2023-02-01T09:10:08;5.00;99.90
20858;DHT22;10589;53.636;10.012;2023-02-01T09:12:34;5.20;99.90
20858;DHT22;10589;53.636;10.012;2023-02-01T09:15:00;5.30;99.90
20858;DHT22;10589;53.636;10.012;2023-02-01T09:17:27;5.40;99.90
20858;DHT22;10589;53.636;10.012;2023-02-01T09:19:52;5.50;99.90
20858;DHT22;10589;53.636;10.012;2023-02-01T09:22:18;5.50;99.90
20858;DHT22;10589;53.636;10.012;2023-02-01T09:24:43;5.60;99.90
20858;DHT22;10589;53.636;10.012;2023-02-01T09:27:09;5.80;99.90
20858;DHT22;10589;53.636;10.012;2023-02-01T09:29:35;5.90;99.90
20858;DHT22;10589;53.636;10.012;2023-02-01T09:32:00;5.90;99.90
20858;DHT22;10589;53.636;10.012;2023-02-01T09:34:26;5.90;99.90
20858;DHT22;10589;53.636;10.012;2023-02-01T09:36:52;6.00;99.90
20858;DHT22;10589;53.636;10.012;2023-02-01T09:39:17;6.00;99.90
20858;DHT22;10589;53.636;10.012;2023-02-01T09:41:52;6.10;99.90
20858;DHT22;10589;53.636;10.012;2023-02-01T09:47:16;6.10;99.90
20858;DHT22;10589;53.636;10.012;2023-02-01T09:52:34;6.00;99.90
20858;DHT22;10589;53.636;10.012;2023-02-01T09:55:30;6.00;99.90
20858;DHT22;10589;53.636;10.012;2023-02-01T09:58:04;5.90;99.90
20858;DHT22;10589;53.636;10.012;2023-02-01T10:00:36;5.90;99.90
20858;DHT22;10589;53.636;10.012;2023-02-01T10:03:03;6.10;99.90
20858;DHT22;10589;53.636;10.012;2023-02-01T10:05:49;6.10;99.90
20858;DHT22;10589;53.636;10.012;2023-02-01T10:20:29;6.10;99.90
20858;DHT22;10589;53.636;10.012;2023-02-01T10:23:29;6.10;99.90
20858;DHT22;10589;53.636;10.012;2023-02-01T10:26:19;6.10;99.90
20858;DHT22;10589;53.636;10.012;2023-02-01T10:28:49;6.00;99.90
20858;DHT22;10589;53.636;10.012;2023-02-01T10:31:16;5.90;99.90
20858;DHT22;10589;53.636;10.012;2023-02-01T10:33:45;5.90;99.90
20858;DHT22;10589;53.636;10.012;2023-02-01T10:36:33;5.90;99.90
20858;DHT22;10589;53.636;10.012;2023-02-01T10:39:04;6.00;99.90
20858;DHT22;10589;53.636;10.012;2023-02-01T10:41:36;5.90;99.90
20858;DHT22;10589;53.636;10.012;2023-02-01T10:44:06;5.80;99.90
20858;DHT22;10589;53.636;10.012;2023-02-01T10:46:33;5.90;99.90
20858;DHT22;10589;53.636;10.012;2023-02-01T10:49:02;5.80;99.90
20858;DHT22;10589;53.636;10.012;2023-02-01T10:51:35;5.70;99.90
20858;DHT22;10589;53.636;10.012;2023-02-01T10:54:14;5.70;99.90
20858;DHT22;10589;53.636;10.012;2023-02-01T10:56:44;5.70;99.90
20858;DHT22;10589;53.636;10.012;2023-02-01T10:59:17;5.70;99.90
20858;DHT22;10589;53.636;10.012;2023-02-01T11:01:45;5.60;99.90
20858;DHT22;10589;53.636;10.012;2023-02-01T11:04:16;5.60;99.90
20858;DHT22;10589;53.636;10.012;2023-02-01T11:06:45;5.60;99.90
20858;DHT22;10589;53.636;10.012;2023-02-01T11:09:19;5.50;99.90
20858;DHT22;10589;53.636;10.012;2023-02-01T11:14:17;5.30;99.90
20858;DHT22;10589;53.636;10.012;2023-02-01T11:19:31;4.80;99.90
20858;DHT22;10589;53.636;10.012;2023-02-01T11:21:59;4.70;99.90
20858;DHT22;10589;53.636;10.012;2023-02-01T11:24:33;4.80;99.90
20858;DHT22;10589;53.636;10.012;2023-02-01T11:27:03;4.90;99.90
20858;DHT22;10589;53.636;10.012;2023-02-01T11:29:38;5.10;99.90
20858;DHT22;10589;53.636;10.012;2023-02-01T11:32:07;5.20;99.90
20858;DHT22;10589;53.636;10.012;2023-02-01T11:34:44;5.30;99.90
20858;DHT22;10589;53.636;10.012;2023-02-01T11:37:28;5.40;99.90
20858;DHT22;10589;53.636;10.012;2023-02-01T11:40:00;5.50;99.90
20858;DHT22;10589;53.636;10.012;2023-02-01T11:42:27;5.50;99.90
20858;DHT22;10589;53.636;10.012;2023-02-01T11:47:55;5.70;99.90
20858;DHT22;10589;53.636;10.012;2023-02-01T11:51:25;5.70;99.90
20858;DHT22;10589;53.636;10.012;2023-02-01T11:56:36;5.80;99.90
20858;DHT22;10589;53.636;10.012;2023-02-01T12:06:55;5.60;99.90
20858;DHT22;10589;53.636;10.012;2023-02-01T12:12:26;5.60;99.90
20858;DHT22;10589;53.636;10.012;2023-02-01T12:27:14;5.30;99.90
20858;DHT22;10589;53.636;10.012;2023-02-01T12:30:26;5.30;99.90
20858;DHT22;10589;53.636;10.012;2023-02-01T12:35:49;5.30;99.90
20858;DHT22;10589;53.636;10.012;2023-02-01T12:43:55;5.00;99.90
20858;DHT22;10589;53.636;10.012;2023-02-01T12:46:31;4.80;99.90
20858;DHT22;10589;53.636;10.012;2023-02-01T12:49:28;4.70;99.90
20858;DHT22;10589;53.636;10.012;2023-02-01T12:52:01;4.70;99.90
20858;DHT22;10589;53.636;10.012;2023-02-01T12:54:37;4.60;99.90
20858;DHT22;10589;53.636;10.012;2023-02-01T12:57:18;4.60;99.90
20858;DHT22;10589;53.636;10.012;2023-02-01T13:02:57;4.50;99.90
20858;DHT22;10589;53.636;10.012;2023-02-01T13:05:31;4.50;99.90
20858;DHT22;10589;53.636;10.012;2023-02-01T13:08:08;4.50;99.90
20858;DHT22;10589;53.636;10.012;2023-02-01T13:10:45;4.40;99.90
20858;DHT22;10589;53.636;10.012;2023-02-01T13:13:28;4.40;99.90
20858;DHT22;10589;53.636;10.012;2023-02-01T13:16:02;4.50;99.90
20858;DHT22;10589;53.636;10.012;2023-02-01T13:18:35;4.60;99.90
20858;DHT22;10589;53.636;10.012;2023-02-01T13:21:25;4.70;99.90
20858;DHT22;10589;53.636;10.012;2023-02-01T13:23:52;4.80;99.90
20858;DHT22;10589;53.636;10.012;2023-02-01T13:26:18;5.00;99.90
20858;DHT22;10589;53.636;10.012;2023-02-01T13:28:59;5.10;99.90
20858;DHT22;10589;53.636;10.012;2023-02-01T13:31:49;5.20;99.90
20858;DHT22;10589;53.636;10.012;2023-02-01T13:34:31;5.40;99.90
20858;DHT22;10589;53.636;10.012;2023-02-01T13:37:15;5.60;99.90
20858;DHT22;10589;53.636;10.012;2023-02-01T13:40:39;5.80;99.90
20858;DHT22;10589;53.636;10.012;2023-02-01T13:42:53;5.90;99.90
20858;DHT22;10589;53.636;10.012;2023-02-01T13:45:33;6.00;99.90
20858;DHT22;10589;53.636;10.012;2023-02-01T13:48:03;5.90;99.90
20858;DHT22;10589;53.636;10.012;2023-02-01T13:50:40;5.70;99.90
20858;DHT22;10589;53.636;10.012;2023-02-01T13:55:40;5.40;99.90
20858;DHT22;10589;53.636;10.012;2023-02-01T14:00:39;4.90;99.90
20858;DHT22;10589;53.636;10.012;2023-02-01T14:10:54;4.40;99.90
20858;DHT22;10589;53.636;10.012;2023-02-01T14:13:39;4.40;99.90
20858;DHT22;10589;53.636;10.012;2023-02-01T14:23:43;3.90;99.90
20858;DHT22;10589;53.636;10.012;2023-02-01T14:26:12;3.80;99.90
20858;DHT22;10589;53.636;10.012;2023-02-01T14:29:25;3.50;99.90
20858;DHT22;10589;53.636;10.012;2023-02-01T14:31:34;3.40;99.90
20858;DHT22;10589;53.636;10.012;2023-02-01T14:34:10;3.40;99.90
20858;DHT22;10589;53.636;10.012;2023-02-01T14:36:44;3.40;99.90
20858;DHT22;10589;53.636;10.012;2023-02-01T14:39:36;3.60;99.90
20858;DHT22;10589;53.636;10.012;2023-02-01T14:44:50;3.90;99.90
20858;DHT22;10589;53.636;10.012;2023-02-01T14:58:56;4.20;99.90
20858;DHT22;10589;53.636;10.012;2023-02-01T15:01:31;4.30;99.90
20858;DHT22;10589;53.636;10.012;2023-02-01T15:09:20;4.50;99.90
20858;DHT22;10589;53.636;10.012;2023-02-01T15:14:22;4.50;99.90
20858;DHT22;10589;53.636;10.012;2023-02-01T15:16:48;4.40;99.90
20858;DHT22;10589;53.636;10.012;2023-02-01T15:19:20;4.50;99.90
20858;DHT22;10589;53.636;10.012;2023-02-01T15:21:52;4.50;99.90
20858;DHT22;10589;53.636;10.012;2023-02-01T15:24:24;4.40;99.90
20858;DHT22;10589;53.636;10.012;2023-02-01T15:26:51;4.50;99.90
20858;DHT22;10589;53.636;10.012;2023-02-01T15:29:18;4.50;99.90
20858;DHT22;10589;53.636;10.012;2023-02-01T15:31:51;4.50;99.90
20858;DHT22;10589;53.636;10.012;2023-02-01T15:34:17;4.40;99.90
20858;DHT22;10589;53.636;10.012;2023-02-01T15:36:44;4.40;99.90
20858;DHT22;10589;53.636;10.012;2023-02-01T15:39:19;4.40;99.90
20858;DHT22;10589;53.636;10.012;2023-02-01T15:41:50;4.40;99.90
20858;DHT22;10589;53.636;10.012;2023-02-01T15:44:37;4.40;99.90
20858;DHT22;10589;53.636;10.012;2023-02-01T15:47:10;4.40;99.90
20858;DHT22;10589;53.636;10.012;2023-02-01T15:49:40;4.40;99.90
20858;DHT22;10589;53.636;10.012;2023-02-01T15:52:32;4.40;99.90
20858;DHT22;10589;53.636;10.012;2023-02-01T15:55:05;4.40;99.90
20858;DHT22;10589;53.636;10.012;2023-02-01T15:57:38;4.40;99.90
20858;DHT22;10589;53.636;10.012;2023-02-01T16:00:29;4.30;99.90
20858;DHT22;10589;53.636;10.012;2023-02-01T16:05:45;4.30;99.90
20858;DHT22;10589;53.636;10.012;2023-02-01T16:08:23;4.30;99.90
20858;DHT22;10589;53.636;10.012;2023-02-01T16:10:51;4.30;99.90
20858;DHT22;10589;53.636;10.012;2023-02-01T16:13:19;4.40;99.90
20858;DHT22;10589;53.636;10.012;2023-02-01T16:15:46;4.40;99.90
20858;DHT22;10589;53.636;10.012;2023-02-01T16:18:13;4.40;99.90
20858;DHT22;10589;53.636;10.012;2023-02-01T16:20:40;4.50;99.90
20858;DHT22;10589;53.636;10.012;2023-02-01T16:23:07;4.40;99.90
20858;DHT22;10589;53.636;10.012;2023-02-01T16:25:34;4.50;99.90
20858;DHT22;10589;53.636;10.012;2023-02-01T16:27:59;4.50;99.90
20858;DHT22;10589;53.636;10.012;2023-02-01T16:30:25;4.50;99.90
20858;DHT22;10589;53.636;10.012;2023-02-01T16:32:55;4.60;99.90
20858;DHT22;10589;53.636;10.012;2023-02-01T16:35:28;4.60;99.90
20858;DHT22;10589;53.636;10.012;2023-02-01T16:37:57;4.60;99.90
20858;DHT22;10589;53.636;10.012;2023-02-01T16:40:23;4.60;99.90
20858;DHT22;10589;53.636;10.012;2023-02-01T16:42:51;4.70;99.90
20858;DHT22;10589;53.636;10.012;2023-02-01T16:45:18;4.70;99.90
20858;DHT22;10589;53.636;10.012;2023-02-01T16:47:48;4.70;99.90
20858;DHT22;10589;53.636;10.012;2023-02-01T16:50:17;4.70;99.90
20858;DHT22;10589;53.636;10.012;2023-02-01T16:52:44;4.60;99.90
20858;DHT22;10589;53.636;10.012;2023-02-01T16:55:14;4.60;99.90
20858;DHT22;10589;53.636;10.012;2023-02-01T16:57:42;4.60;99.90
20858;DHT22;10589;53.636;10.012;2023-02-01T17:00:09;4.60;99.90
20858;DHT22;10589;53.636;10.012;2023-02-01T17:02:35;4.60;99.90
20858;DHT22;10589;53.636;10.012;2023-02-01T17:05:01;4.60;99.90
20858;DHT22;10589;53.636;10.012;2023-02-01T17:07:26;4.60;99.90
20858;DHT22;10589;53.636;10.012;2023-02-01T17:09:52;4.70;99.90
20858;DHT22;10589;53.636;10.012;2023-02-01T17:12:26;4.60;99.90
20858;DHT22;10589;53.636;10.012;2023-02-01T17:14:51;4.60;99.90
20858;DHT22;10589;53.636;10.012;2023-02-01T17:17:19;4.60;99.90
20858;DHT22;10589;53.636;10.012;2023-02-01T17:19:48;4.70;99.90
20858;DHT22;10589;53.636;10.012;2023-02-01T17:22:17;4.70;99.90
20858;DHT22;10589;53.636;10.012;2023-02-01T17:24:43;4.70;99.90
20858;DHT22;10589;53.636;10.012;2023-02-01T17:27:09;4.70;99.90
20858;DHT22;10589;53.636;10.012;2023-02-01T17:29:34;4.70;99.90
20858;DHT22;10589;53.636;10.012;2023-02-01T17:32:00;4.70;99.90
20858;DHT22;10589;53.636;10.012;2023-02-01T17:34:27;4.80;99.90
20858;DHT22;10589;53.636;10.012;2023-02-01T17:36:53;4.90;99.90
20858;DHT22;10589;53.636;10.012;2023-02-01T17:39:18;4.90;99.90
20858;DHT22;10589;53.636;10.012;2023-02-01T17:42:04;4.90;99.90
20858;DHT22;10589;53.636;10.012;2023-02-01T17:44:30;5.00;99.90
20858;DHT22;10589;53.636;10.012;2023-02-01T17:46:56;5.00;99.90
20858;DHT22;10589;53.636;10.012;2023-02-01T17:49:24;5.10;99.90
20858;DHT22;10589;53.636;10.012;2023-02-01T17:51:50;5.10;99.90
20858;DHT22;10589;53.636;10.012;2023-02-01T17:54:16;5.20;99.90
20858;DHT22;10589;53.636;10.012;2023-02-01T17:56:44;5.10;99.90
20858;DHT22;10589;53.636;10.012;2023-02-01T17:59:11;5.20;99.90
20858;DHT22;10589;53.636;10.012;2023-02-01T18:01:37;5.20;99.90
20858;DHT22;10589;53.636;10.012;2023-02-01T18:04:03;5.20;99.90
20858;DHT22;10589;53.636;10.012;2023-02-01T18:06:32;5.20;99.90
20858;DHT22;10589;53.636;10.012;2023-02-01T18:08:58;5.10;99.90
20858;DHT22;10589;53.636;10.012;2023-02-01T18:11:24;5.10;99.90
20858;DHT22;10589;53.636;10.012;2023-02-01T18:13:51;5.10;99.90
20858;DHT22;10589;53.636;10.012;2023-02-01T18:16:23;5.10;99.90
20858;DHT22;10589;53.636;10.012;2023-02-01T18:18:49;5.00;99.90
20858;DHT22;10589;53.636;10.012;2023-02-01T18:21:21;5.00;99.90
20858;DHT22;10589;53.636;10.012;2023-02-01T18:23:48;5.00;99.90
20858;DHT22;10589;53.636;10.012;2023-02-01T18:26:15;5.00;99.90
20858;DHT22;10589;53.636;10.012;2023-02-01T18:28:41;4.90;99.90
20858;DHT22;10589;53.636;10.012;2023-02-01T18:31:21;4.90;99.90
20858;DHT22;10589;53.636;10.012;2023-02-01T18:33:48;4.80;99.90
20858;DHT22;10589;53.636;10.012;2023-02-01T18:36:13;4.90;99.90
20858;DHT22;10589;53.636;10.012;2023-02-01T18:38:40;4.80;99.90
20858;DHT22;10589;53.636;10.012;2023-02-01T18:41:15;4.90;99.90
20858;DHT22;10589;53.636;10.012;2023-02-01T18:43:42;4.90;99.90
20858;DHT22;10589;53.636;10.012;2023-02-01T18:46:11;4.90;99.90
20858;DHT22;10589;53.636;10.012;2023-02-01T18:48:37;5.00;99.90
20858;DHT22;10589;53.636;10.012;2023-02-01T18:51:03;5.00;99.90
20858;DHT22;10589;53.636;10.012;2023-02-01T18:53:29;5.00;99.90
20858;DHT22;10589;53.636;10.012;2023-02-01T18:55:56;5.00;99.90
20858;DHT22;10589;53.636;10.012;2023-02-01T18:58:22;5.00;99.90
20858;DHT22;10589;53.636;10.012;2023-02-01T19:00:52;5.10;99.90
20858;DHT22;10589;53.636;10.012;2023-02-01T19:03:19;5.10;99.90
20858;DHT22;10589;53.636;10.012;2023-02-01T19:05:45;5.20;99.90
20858;DHT22;10589;53.636;10.012;2023-02-01T19:08:12;5.20;99.90
20858;DHT22;10589;53.636;10.012;2023-02-01T19:10:40;5.20;99.90
20858;DHT22;10589;53.636;10.012;2023-02-01T19:13:06;5.20;99.90
20858;DHT22;10589;53.636;10.012;2023-02-01T19:15:32;5.30;99.90
20858;DHT22;10589;53.636;10.012;2023-02-01T19:18:00;5.20;99.90
20858;DHT22;10589;53.636;10.012;2023-02-01T19:20:26;5.20;99.90
20858;DHT22;10589;53.636;10.012;2023-02-01T19:22:52;5.20;99.90
20858;DHT22;10589;53.636;10.012;2023-02-01T19:25:20;5.20;99.90
20858;DHT22;10589;53.636;10.012;2023-02-01T19:27:47;5.30;99.90
20858;DHT22;10589;53.636;10.012;2023-02-01T19:30:13;5.40;99.90
20858;DHT22;10589;53.636;10.012;2023-02-01T19:32:39;5.30;99.90
20858;DHT22;10589;53.636;10.012;2023-02-01T19:35:05;5.20;99.90
20858;DHT22;10589;53.636;10.012;2023-02-01T19:37:32;5.10;99.90
20858;DHT22;10589;53.636;10.012;2023-02-01T19:39:58;5.00;99.90
20858;DHT22;10589;53.636;10.012;2023-02-01T19:42:27;4.90;99.90
20858;DHT22;10589;53.636;10.012;2023-02-01T19:44:54;4.90;99.90
20858;DHT22;10589;53.636;10.012;2023-02-01T19:47:20;4.80;99.90
20858;DHT22;10589;53.636;10.012;2023-02-01T19:49:45;4.80;99.90
20858;DHT22;10589;53.636;10.012;2023-02-01T19:52:11;4.70;99.90
20858;DHT22;10589;53.636;10.012;2023-02-01T19:54:37;4.70;99.90
20858;DHT22;10589;53.636;10.012;2023-02-01T19:57:02;4.60;99.90
20858;DHT22;10589;53.636;10.012;2023-02-01T19:59:28;4.60;99.90
20858;DHT22;10589;53.636;10.012;2023-02-01T20:01:54;4.60;99.90
20858;DHT22;10589;53.636;10.012;2023-02-01T20:04:21;4.60;99.90
20858;DHT22;10589;53.636;10.012;2023-02-01T20:06:47;4.60;99.90
20858;DHT22;10589;53.636;10.012;2023-02-01T20:09:21;4.60;99.90
20858;DHT22;10589;53.636;10.012;2023-02-01T20:11:48;4.60;99.90
20858;DHT22;10589;53.636;10.012;2023-02-01T20:14:14;4.60;99.90
20858;DHT22;10589;53.636;10.012;2023-02-01T20:16:41;4.60;99.90
20858;DHT22;10589;53.636;10.012;2023-02-01T20:19:07;4.70;99.90
20858;DHT22;10589;53.636;10.012;2023-02-01T20:21:35;4.60;99.90
20858;DHT22;10589;53.636;10.012;2023-02-01T20:24:01;4.50;99.90
20858;DHT22;10589;53.636;10.012;2023-02-01T20:26:27;4.40;99.90
20858;DHT22;10589;53.636;10.012;2023-02-01T20:28:52;4.40;99.90
20858;DHT22;10589;53.636;10.012;2023-02-01T20:31:20;4.40;99.90
20858;DHT22;10589;53.636;10.012;2023-02-01T20:33:45;4.50;99.90
20858;DHT22;10589;53.636;10.012;2023-02-01T20:36:11;4.40;99.90
20858;DHT22;10589;53.636;10.012;2023-02-01T20:38:37;4.50;99.90
20858;DHT22;10589;53.636;10.012;2023-02-01T20:41:04;4.50;99.90
20858;DHT22;10589;53.636;10.012;2023-02-01T20:43:30;4.40;99.90
20858;DHT22;10589;53.636;10.012;2023-02-01T20:45:56;4.50;99.90
20858;DHT22;10589;53.636;10.012;2023-02-01T20:48:21;4.60;99.90
20858;DHT22;10589;53.636;10.012;2023-02-01T20:50:51;4.60;99.90
20858;DHT22;10589;53.636;10.012;2023-02-01T20:53:16;4.60;99.90
20858;DHT22;10589;53.636;10.012;2023-02-01T20:55:42;4.50;99.90
20858;DHT22;10589;53.636;10.012;2023-02-01T20:58:08;4.50;99.90
20858;DHT22;10589;53.636;10.012;2023-02-01T21:00:33;4.60;99.90
20858;DHT22;10589;53.636;10.012;2023-02-01T21:02:59;4.70;99.90
20858;DHT22;10589;53.636;10.012;2023-02-01T21:05:24;4.70;99.90
20858;DHT22;10589;53.636;10.012;2023-02-01T21:08:08;4.80;99.90
20858;DHT22;10589;53.636;10.012;2023-02-01T21:10:34;4.80;99.90
20858;DHT22;10589;53.636;10.012;2023-02-01T21:13:00;4.90;99.90
20858;DHT22;10589;53.636;10.012;2023-02-01T21:15:26;5.00;99.90
20858;DHT22;10589;53.636;10.012;2023-02-01T21:17:52;4.90;99.90
20858;DHT22;10589;53.636;10.012;2023-02-01T21:20:18;4.90;99.90
20858;DHT22;10589;53.636;10.012;2023-02-01T21:22:44;4.90;99.90
20858;DHT22;10589;53.636;10.012;2023-02-01T21:25:09;4.90;99.90
20858;DHT22;10589;53.636;10.012;2023-02-01T21:27:35;5.00;99.90
20858;DHT22;10589;53.636;10.012;2023-02-01T21:30:02;5.00;99.90
20858;DHT22;10589;53.636;10.012;2023-02-01T21:32:27;5.00;99.90
20858;DHT22;10589;53.636;10.012;2023-02-01T21:34:53;5.00;99.90
20858;DHT22;10589;53.636;10.012;2023-02-01T21:37:19;5.00;99.90
20858;DHT22;10589;53.636;10.012;2023-02-01T21:39:50;5.00;99.90
20858;DHT22;10589;53.636;10.012;2023-02-01T21:42:15;5.00;99.90
20858;DHT22;10589;53.636;10.012;2023-02-01T21:44:43;5.10;99.90
20858;DHT22;10589;53.636;10.012;2023-02-01T21:47:11;5.10;99.90
20858;DHT22;10589;53.636;10.012;2023-02-01T21:49:37;5.20;99.90
20858;DHT22;10589;53.636;10.012;2023-02-01T21:52:03;5.30;99.90
20858;DHT22;10589;53.636;10.012;2023-02-01T21:54:29;5.30;99.90
20858;DHT22;10589;53.636;10.012;2023-02-01T21:56:54;5.30;99.90
20858;DHT22;10589;53.636;10.012;2023-02-01T21:59:20;5.30;99.90
20858;DHT22;10589;53.636;10.012;2023-02-01T22:01:45;5.20;99.90
20858;DHT22;10589;53.636;10.012;2023-02-01T22:04:11;5.20;99.90
20858;DHT22;10589;53.636;10.012;2023-02-01T22:06:39;5.20;99.90
20858;DHT22;10589;53.636;10.012;2023-02-01T22:09:19;5.10;99.90
20858;DHT22;10589;53.636;10.012;2023-02-01T22:11:45;5.10;99.90
20858;DHT22;10589;53.636;10.012;2023-02-01T22:14:11;5.00;99.90
20858;DHT22;10589;53.636;10.012;2023-02-01T22:16:37;5.00;99.90
20858;DHT22;10589;53.636;10.012;2023-02-01T22:19:02;5.00;99.90
20858;DHT22;10589;53.636;10.012;2023-02-01T22:21:28;5.00;99.90